createdAt,value
2022-12-08T00:00:22.982Z,103408.31
2022-12-08T00:05:44.494Z,103402.69
2022-12-08T00:10:49.453Z,103354.44
2022-12-08T00:15:52.993Z,103352.97
2022-12-08T00:20:57.760Z,103317.75
2022-12-08T00:26:05.957Z,103403.13
2022-12-08T00:31:11.134Z,103370.59
2022-12-08T00:36:15.313Z,103401.59
2022-12-08T00:41:41.565Z,103400.38
2022-12-08T00:46:45.363Z,103408.97
2022-12-08T00:51:48.647Z,103405.75
2022-12-08T00:56:51.873Z,103363.34
2022-12-08T01:01:55.835Z,103401.13
2022-12-08T01:07:00.484Z,103402.13
2022-12-08T01:12:03.665Z,103412.00
2022-12-08T01:17:06.781Z,103368.69
2022-12-08T01:22:09.946Z,103408.78
2022-12-08T01:27:16.366Z,103390.16
2022-12-08T01:32:19.392Z,103406.63
2022-12-08T01:37:22.469Z,103383.13
2022-12-08T01:42:26.023Z,103411.78
2022-12-08T01:47:42.107Z,103356.88
2022-12-08T01:52:56.583Z,103429.47
2022-12-08T01:58:11.051Z,103435.56
2022-12-08T02:03:20.413Z,103428.28
2022-12-08T02:08:23.943Z,103427.66
2022-12-08T02:13:28.236Z,103425.03
2022-12-08T02:19:30.345Z,103450.28
2022-12-08T02:24:56.700Z,103447.84
2022-12-08T02:30:06.527Z,103398.97
2022-12-08T02:35:32.119Z,103449.88
2022-12-08T02:40:54.172Z,103449.75
2022-12-08T02:46:02.175Z,103449.53
2022-12-08T02:51:07.096Z,103443.16
2022-12-08T02:56:19.052Z,103445.13
2022-12-08T03:01:50.240Z,103433.22
2022-12-08T03:07:07.933Z,103453.84
2022-12-08T03:12:18.959Z,103441.41
2022-12-08T03:17:26.646Z,103448.09
2022-12-08T03:22:30.123Z,103446.25
2022-12-08T03:27:33.458Z,103443.91
2022-12-08T03:32:48.063Z,103437.00
2022-12-08T03:37:51.219Z,103441.09
2022-12-08T03:42:54.210Z,103455.63
2022-12-08T03:47:57.595Z,103458.13
2022-12-08T03:53:00.581Z,103455.78
2022-12-08T03:58:03.663Z,103455.38
2022-12-08T04:03:07.064Z,103452.66
2022-12-08T04:08:10.218Z,103454.81
2022-12-08T04:13:13.367Z,103455.75
2022-12-08T04:18:16.801Z,103446.88
2022-12-08T04:23:20.050Z,103459.00
2022-12-08T04:28:23.437Z,103465.75
2022-12-08T04:33:26.921Z,103461.88
2022-12-08T04:38:30.133Z,103466.06
2022-12-08T04:43:33.445Z,103461.53
2022-12-08T04:48:40.499Z,103470.25
2022-12-08T04:53:46.659Z,103481.84
2022-12-08T04:58:50.298Z,103474.94
2022-12-08T05:03:53.437Z,103446.38
2022-12-08T05:08:56.482Z,103481.50
2022-12-08T05:13:59.583Z,103481.03
2022-12-08T05:19:02.707Z,103491.91
2022-12-08T05:24:06.153Z,103486.66
2022-12-08T05:29:09.230Z,103476.75
2022-12-08T05:34:12.508Z,103439.50
2022-12-08T05:39:16.125Z,103456.00
2022-12-08T05:44:19.189Z,103480.28
2022-12-08T05:49:22.309Z,103446.72
2022-12-08T05:54:25.626Z,103459.09
2022-12-08T05:59:28.675Z,103494.78
2022-12-08T06:04:31.732Z,103485.25
2022-12-08T06:09:34.754Z,103492.53
2022-12-08T06:14:41.104Z,103504.44
2022-12-08T06:19:44.384Z,103453.72
2022-12-08T06:24:47.420Z,103492.84
2022-12-08T06:29:50.433Z,103489.88
2022-12-08T06:34:53.752Z,103451.69
2022-12-08T06:39:57.188Z,103425.84
2022-12-08T06:45:00.939Z,103496.53
2022-12-08T06:50:05.430Z,103490.28
2022-12-08T06:55:10.145Z,103497.84
2022-12-08T07:00:13.758Z,103502.22
2022-12-08T07:05:17.018Z,103483.06
2022-12-08T07:10:20.192Z,103487.09
2022-12-08T07:15:23.345Z,103496.94
2022-12-08T07:20:26.562Z,103507.91
2022-12-08T07:25:29.697Z,103488.34
2022-12-08T07:30:32.824Z,103496.31
2022-12-08T07:35:36.294Z,103469.22
2022-12-08T07:40:39.690Z,103495.28
2022-12-08T07:45:43.065Z,103497.78
2022-12-08T07:50:46.303Z,103488.22
2022-12-08T07:55:49.428Z,103473.84
2022-12-08T08:00:53.031Z,103479.59
2022-12-08T08:05:56.155Z,103465.56
2022-12-08T08:10:59.306Z,103468.47
2022-12-08T08:16:07.357Z,103463.16
2022-12-08T08:21:43.729Z,103456.50
2022-12-08T08:26:37.511Z,103454.00
2022-12-08T08:31:40.938Z,103434.56
2022-12-08T08:36:45.768Z,103435.56
2022-12-08T08:41:49.528Z,103443.03
2022-12-08T08:46:52.883Z,103418.63
2022-12-08T08:51:56.863Z,103413.44
2022-12-08T08:57:00.938Z,103405.63
2022-12-08T09:02:03.953Z,103379.78
2022-12-08T09:07:07.814Z,103404.19
2022-12-08T09:12:11.219Z,103402.06
2022-12-08T09:17:15.161Z,103401.41
2022-12-08T09:22:18.405Z,103364.28
2022-12-08T09:27:22.294Z,103385.75
2022-12-08T09:32:25.686Z,103377.50
2022-12-08T09:37:31.419Z,103343.00
2022-12-08T09:42:42.352Z,103343.66
2022-12-08T09:47:48.280Z,103335.81
2022-12-08T09:53:21.244Z,103331.66
2022-12-08T09:58:32.627Z,103306.34
2022-12-08T10:03:35.567Z,103354.06
2022-12-08T10:08:48.878Z,103355.09
2022-12-08T10:14:30.797Z,103356.00
2022-12-08T10:19:36.053Z,103353.38
2022-12-08T10:24:48.558Z,103344.72
2022-12-08T10:29:52.855Z,103334.34
2022-12-08T10:35:16.273Z,103330.03
2022-12-08T10:40:19.551Z,103336.09
2022-12-08T10:45:23.335Z,103331.69
2022-12-08T10:50:32.491Z,103325.28
2022-12-08T10:56:07.124Z,103319.16
2022-12-08T11:01:29.245Z,103329.97
2022-12-08T11:06:38.885Z,103312.34
2022-12-08T11:11:53.607Z,103311.59
2022-12-08T11:17:06.179Z,103296.06
2022-12-08T11:22:31.163Z,103305.41
2022-12-08T11:27:36.916Z,103300.00
2022-12-08T11:32:45.141Z,103273.44
2022-12-08T11:37:49.864Z,103301.22
2022-12-08T11:43:25.627Z,103289.00
2022-12-08T11:48:44.374Z,103294.06
2022-12-08T11:54:18.188Z,103285.44
2022-12-08T11:59:31.780Z,103333.25
2022-12-08T12:04:41.168Z,103316.06
2022-12-08T12:10:06.329Z,103335.19
2022-12-08T12:15:15.831Z,103314.47
2022-12-08T12:20:59.270Z,103309.28
2022-12-08T12:26:06.824Z,103330.91
2022-12-08T12:31:15.992Z,103304.50
2022-12-08T12:36:19.333Z,103331.41
2022-12-08T12:41:33.271Z,103317.00
2022-12-08T12:46:36.582Z,103338.25
2022-12-08T12:51:39.690Z,103303.75
2022-12-08T12:56:50.823Z,103347.69
2022-12-08T13:01:56.039Z,103349.16
2022-12-08T13:07:00.016Z,103342.81
2022-12-08T13:12:23.240Z,103336.31
2022-12-08T13:17:32.685Z,103358.81
2022-12-08T13:22:54.066Z,103361.03
2022-12-08T13:27:57.163Z,103362.84
2022-12-08T13:33:18.551Z,103351.53
2022-12-08T13:38:26.715Z,103364.19
2022-12-08T13:44:20.097Z,103352.72
2022-12-08T13:55:25.917Z,103359.97
2022-12-08T14:00:15.856Z,103358.94
2022-12-08T14:05:40.585Z,103361.06
2022-12-08T14:10:48.304Z,103368.41
2022-12-08T14:15:51.492Z,103375.22
2022-12-08T14:21:20.887Z,103364.00
2022-12-08T14:26:24.642Z,103355.41
2022-12-08T14:31:29.369Z,103368.41
2022-12-08T14:36:33.928Z,103366.38
2022-12-08T14:41:37.457Z,103367.19
2022-12-08T14:47:05.810Z,103384.44
2022-12-08T14:52:11.862Z,103387.66
2022-12-08T14:57:15.836Z,103383.72
2022-12-08T15:02:19.745Z,103391.88
2022-12-08T15:07:32.162Z,103395.34
2022-12-08T15:12:35.299Z,103399.19
2022-12-08T15:17:50.480Z,103399.91
2022-12-08T15:22:55.047Z,103402.03
2022-12-08T15:27:58.341Z,103400.91
2022-12-08T15:33:01.426Z,103396.22
2022-12-08T15:38:05.623Z,103414.16
2022-12-08T15:43:11.430Z,103413.63
2022-12-08T15:48:23.143Z,103425.78
2022-12-08T15:53:26.583Z,103417.97
2022-12-08T15:58:52.922Z,103395.41
2022-12-08T16:04:36.765Z,103396.19
2022-12-08T16:09:19.827Z,103400.03
2022-12-08T16:15:23.401Z,103389.84
2022-12-08T16:19:46.365Z,103382.56
2022-12-08T16:24:49.448Z,103355.38
2022-12-08T16:29:52.547Z,103354.31
2022-12-08T16:34:55.714Z,103350.94
2022-12-08T16:40:00.515Z,103357.72
2022-12-08T16:45:07.784Z,103346.56
2022-12-08T16:50:21.212Z,103325.09
2022-12-08T16:55:24.393Z,103332.59
2022-12-08T17:00:29.818Z,103340.53
2022-12-08T17:05:33.200Z,103342.84
2022-12-08T17:10:39.656Z,103337.34
2022-12-08T17:15:42.733Z,103343.31
2022-12-08T17:20:45.911Z,103369.03
2022-12-08T17:26:01.796Z,103360.78
2022-12-08T17:31:17.942Z,103362.63
2022-12-08T17:36:22.191Z,103376.06
2022-12-08T17:41:25.346Z,103369.56
2022-12-08T17:46:28.556Z,103378.97
2022-12-08T17:51:31.726Z,103387.63
2022-12-08T17:56:35.332Z,103382.44
2022-12-08T18:01:38.845Z,103378.84
2022-12-08T18:06:42.507Z,103382.19
2022-12-08T18:11:46.571Z,103383.53
2022-12-08T18:16:49.828Z,103343.19
2022-12-08T18:21:53.095Z,103346.06
2022-12-08T18:26:58.000Z,103365.81
2022-12-08T18:32:01.238Z,103371.75
2022-12-08T18:37:04.642Z,103361.94
2022-12-08T18:42:23.170Z,103326.34
2022-12-08T18:47:26.328Z,103333.09
2022-12-08T18:52:32.224Z,103385.00
2022-12-08T18:57:40.427Z,103394.41
2022-12-08T19:02:43.835Z,103394.97
2022-12-08T19:07:47.083Z,103379.78
2022-12-08T19:12:51.553Z,103379.84
2022-12-08T19:17:54.697Z,103377.31
2022-12-08T19:22:57.828Z,103378.81
2022-12-08T19:28:00.904Z,103384.75
2022-12-08T19:33:04.015Z,103380.25
2022-12-08T19:38:07.393Z,103398.13
2022-12-08T19:43:35.626Z,103346.13
2022-12-08T19:48:38.768Z,103374.25
2022-12-08T19:53:47.398Z,103378.56
2022-12-08T19:58:51.154Z,103370.47
2022-12-08T20:03:54.189Z,103389.97
2022-12-08T20:08:57.343Z,103384.91
2022-12-08T20:14:00.449Z,103358.63
2022-12-08T20:19:03.906Z,103363.63
2022-12-08T20:24:07.705Z,103343.03
2022-12-08T20:29:10.922Z,103369.41
2022-12-08T20:34:15.922Z,103378.94
2022-12-08T20:39:19.181Z,103363.78
2022-12-08T20:44:22.445Z,103379.50
2022-12-08T20:49:29.753Z,103366.06
2022-12-08T20:54:37.638Z,103326.44
2022-12-08T20:59:40.925Z,103383.81
2022-12-08T21:04:44.258Z,103364.06
2022-12-08T21:09:47.809Z,103366.94
2022-12-08T21:14:51.151Z,103367.19
2022-12-08T21:19:54.268Z,103365.44
2022-12-08T21:24:57.324Z,103354.53
2022-12-08T21:30:00.461Z,103368.25
2022-12-08T21:35:03.691Z,103372.34
2022-12-08T21:40:08.096Z,103354.94
2022-12-08T21:45:16.900Z,103344.00
2022-12-08T21:50:22.184Z,103354.28
2022-12-08T21:55:25.408Z,103309.44
2022-12-08T22:00:28.773Z,103345.53
2022-12-08T22:05:32.794Z,103349.63
2022-12-08T22:10:36.014Z,103324.69
2022-12-08T22:15:39.280Z,103344.13
2022-12-08T22:20:44.091Z,103351.09
2022-12-08T22:25:58.392Z,103340.47
2022-12-08T22:31:01.511Z,103346.53
2022-12-08T22:36:10.743Z,103354.16
2022-12-08T22:41:14.775Z,103346.69
2022-12-08T22:46:24.454Z,103347.00
2022-12-08T22:51:27.792Z,103338.00
2022-12-08T22:56:31.109Z,103325.81
2022-12-08T23:01:35.024Z,103348.56
2022-12-08T23:06:38.213Z,103365.06
2022-12-08T23:11:41.401Z,103330.13
2022-12-08T23:16:45.084Z,103361.94
2022-12-08T23:21:48.321Z,103321.81
2022-12-08T23:26:51.492Z,103375.03
2022-12-08T23:31:54.713Z,103327.06
2022-12-08T23:36:58.089Z,103373.94
2022-12-08T23:42:01.486Z,103335.22
2022-12-08T23:47:04.889Z,103369.22
2022-12-08T23:52:08.266Z,103346.94
2022-12-08T23:57:11.678Z,103361.28
